Time;durP1;ratioP1;P1;durP2;ratioP2;P2;SDS_P1;SDS_P2;PMS_P1;PMS_P2;Temp;Humidity;BMP_temperature;BMP_pressure;BME280_temperature;BME280_humidity;BME280_pressure;Samples;Min_cycle;Max_cycle;Signal;HPM_P1;HPM_P2
2021/12/08 03:32:04;;;;;;;;;;;;;;;;;;;;;
2021/12/08 04:16:11;;;;;;;16.40;9.98;;;;;;;1.64;79.08;93512.14;816545;71;31336;-76
2021/12/08 04:31:11;;;;;;;14.93;9.25;;;;;;;2.06;78.20;93549.20;827694;71;30105;-76
2021/12/08 04:46:22;;;;;;;15.48;9.33;;;;;;;2.14;77.66;93561.63;825866;71;29750;-77
2021/12/08 05:16:11;;;;;;;19.92;11.70;;;;;;;2.17;77.53;93607.66;824826;71;30340;-77
2021/12/08 05:31:31;;;;;;;18.20;10.95;;;;;;;2.12;77.68;93618.80;816203;71;32840;-77
2021/12/08 05:46:10;;;;;;;18.40;12.15;;;;;;;5.05;92.60;93617.71;818945;71;29777;-79
2021/12/08 06:01:15;;;;;;;16.87;11.55;;;;;;;4.15;73.35;93632.14;823061;71;29890;-77
2021/12/08 06:16:12;;;;;;;15.83;10.55;;;;;;;3.15;74.21;93672.69;820592;71;29759;-78
2021/12/08 06:31:10;;;;;;;18.00;11.68;;;;;;;2.49;74.89;93661.03;827477;71;29768;-79
2021/12/08 06:46:09;;;;;;;18.48;10.95;;;;;;;2.34;76.12;93691.56;834981;71;29855;-79
2021/12/08 07:01:36;;;;;;;17.40;11.20;;;;;;;2.23;76.18;93677.83;826592;71;32731;-77
2021/12/08 07:16:14;;;;;;;16.97;10.95;;;;;;;2.23;76.78;93694.66;818299;70;28162;-76
2021/12/08 07:31:18;;;;;;;14.20;10.20;;;;;;;1.94;75.98;93673.59;826290;71;30958;-80
2021/12/08 07:46:20;;;;;;;16.00;10.60;;;;;;;2.22;75.69;93731.13;825995;71;33678;-78
2021/12/08 08:01:11;;;;;;;14.25;9.25;;;;;;;2.24;75.39;93744.59;827261;71;30524;-76
2021/12/08 08:16:21;;;;;;;14.78;10.20;;;;;;;2.28;75.47;93764.53;826496;71;33643;-77
2021/12/08 08:31:19;;;;;;;17.48;11.08;;;;;;;2.42;75.18;93769.25;833208;71;33113;-76
2021/12/08 08:46:12;;;;;;;16.85;10.08;;;;;;;2.51;74.72;93766.41;827449;71;30686;-76
2021/12/08 09:16:20;;;;;;;14.33;10.18;;;;;;;2.87;73.34;93734.11;834295;71;32954;-78
2021/12/08 09:31:12;;;;;;;16.20;10.30;;;;;;;3.38;72.62;93708.17;828664;71;30296;-76
2021/12/08 09:46:29;;;;;;;15.63;11.40;;;;;;;3.82;71.60;93704.97;826146;71;32813;-78
2021/12/08 10:01:15;;;;;;;17.23;11.65;;;;;;;4.21;70.39;93695.97;828379;71;29919;-77
2021/12/08 10:16:09;;;;;;;17.45;12.18;;;;;;;4.44;70.08;93698.20;827437;71;29697;-76
2021/12/08 10:31:17;;;;;;;36.48;21.15;;;;;;;4.69;69.70;93691.55;828115;71;30190;-78
2021/12/08 10:46:12;;;;;;;16.60;12.10;;;;;;;5.54;68.47;93668.75;819682;71;29852;-77
2021/12/08 11:01:18;;;;;;;18.25;13.68;;;;;;;8.24;61.77;93680.59;826385;71;32779;-77
2021/12/08 11:16:17;;;;;;;15.55;11.80;;;;;;;8.62;56.91;93676.43;833510;71;33352;-77
2021/12/08 11:31:12;;;;;;;15.60;11.40;;;;;;;8.91;56.42;93673.95;827734;71;30750;-76
2021/12/08 11:46:17;;;;;;;15.93;11.65;;;;;;;8.70;55.88;93680.95;833995;71;29814;-77
2021/12/08 12:01:12;;;;;;;16.02;11.97;;;;;;;8.32;55.77;93686.97;827415;71;29828;-80
2021/12/08 12:16:19;;;;;;;13.58;10.28;;;;;;;7.40;56.92;93694.15;826583;71;32841;-78
2021/12/08 12:31:29;;;;;;;13.62;10.30;;;;;;;6.97;58.11;93715.16;826565;71;32713;-76
2021/12/08 12:46:17;;;;;;;15.72;11.12;;;;;;;6.27;59.36;93712.49;826154;71;33615;-78
2021/12/08 13:01:15;;;;;;;13.32;9.50;;;;;;;4.86;63.30;93735.88;833163;71;30130;-78
2021/12/08 13:16:34;;;;;;;16.93;11.43;;;;;;;4.13;66.19;93753.64;827015;71;32824;-79
2021/12/08 13:31:25;;;;;;;16.07;10.45;;;;;;;3.60;67.80;93764.41;827395;71;30010;-78
2021/12/08 13:46:10;;;;;;;13.08;9.38;;;;;;;3.28;68.84;93771.70;827707;71;29681;-76
2021/12/08 14:01:12;;;;;;;16.27;11.38;;;;;;;3.18;70.49;93788.81;825277;71;30773;-75
2021/12/08 14:16:15;;;;;;;17.32;12.15;;;;;;;3.10;71.02;93807.47;827446;71;28134;-79
2021/12/08 14:31:29;;;;;;;18.87;12.47;;;;;;;3.00;71.03;93811.31;826337;71;33330;-77
2021/12/08 14:46:17;;;;;;;17.48;12.68;;;;;;;2.88;71.83;93821.14;826635;71;32856;-78
2021/12/08 15:16:22;;;;;;;22.55;14.65;;;;;;;2.57;72.71;93815.88;833142;71;32738;-77
2021/12/08 15:31:10;;;;;;;19.40;13.35;;;;;;;2.25;72.74;93807.75;832908;71;29790;-78
2021/12/08 15:46:14;;;;;;;24.15;15.25;;;;;;;2.14;73.42;93815.19;818609;71;30427;-78
2021/12/08 16:01:18;;;;;;;21.95;14.07;;;;;;;1.85;75.16;93838.83;827150;71;33272;-77
2021/12/08 16:16:09;;;;;;;20.65;13.78;;;;;;;1.87;75.52;93843.77;833399;71;30617;-78
2021/12/08 16:31:18;;;;;;;23.25;15.40;;;;;;;2.04;75.14;93852.66;826758;71;33251;-79
2021/12/08 21:16:54;;;;;;;;;;;;;;;;;;;;;
2021/12/08 23:32:00;;;;;;;;;;;;;;;;;;;;;
